Time;durP1;ratioP1;P1;durP2;ratioP2;P2;SDS_P1;SDS_P2;PMS_P1;PMS_P2;Temp;Humidity;BMP_temperature;BMP_pressure;BME280_temperature;BME280_humidity;BME280_pressure;Samples;Min_cycle;Max_cycle;Signal;HPM_P1;HPM_P2
2024/01/11 00:00:45;;;;;;;25.45;13.73;;;-4.40;99.90;;;;;;5071595;28;20041;-70
2024/01/11 00:03:16;;;;;;;27.27;13.82;;;-4.40;99.90;;;;;;5072268;28;20106;-71
2024/01/11 00:05:42;;;;;;;29.23;14.25;;;-4.40;99.90;;;;;;5073223;28;20041;-70
2024/01/11 00:08:08;;;;;;;24.42;13.55;;;-4.40;99.90;;;;;;5072196;28;20398;-70
2024/01/11 00:10:34;;;;;;;26.88;13.90;;;-4.40;99.90;;;;;;5073795;28;20047;-70
2024/01/11 00:12:59;;;;;;;28.65;14.18;;;-4.40;99.90;;;;;;5072907;28;20036;-70
2024/01/11 00:15:25;;;;;;;25.75;14.05;;;-4.50;99.90;;;;;;5072395;28;20117;-70
2024/01/11 00:17:50;;;;;;;27.58;13.93;;;-4.50;99.90;;;;;;5072881;28;20388;-70
2024/01/11 00:20:16;;;;;;;26.38;13.82;;;-4.40;99.90;;;;;;5071314;28;20376;-70
2024/01/11 00:22:45;;;;;;;28.75;14.15;;;-4.00;99.90;;;;;;5072445;28;20048;-70
2024/01/11 00:25:11;;;;;;;26.48;14.70;;;-4.50;99.90;;;;;;5071953;28;20052;-70
2024/01/11 00:27:36;;;;;;;26.50;14.30;;;-4.50;99.90;;;;;;5072790;28;20044;-70
2024/01/11 00:30:02;;;;;;;29.77;15.80;;;-4.50;99.90;;;;;;5071384;28;20396;-70
2024/01/11 00:32:28;;;;;;;25.45;13.52;;;-4.50;99.90;;;;;;5072945;28;20048;-70
2024/01/11 00:34:53;;;;;;;29.10;14.55;;;-4.60;99.90;;;;;;5072601;28;20040;-70
2024/01/11 00:37:19;;;;;;;27.00;13.77;;;-4.60;99.90;;;;;;5071765;28;20040;-70
2024/01/11 00:39:45;;;;;;;29.02;15.05;;;-4.60;99.90;;;;;;5072824;28;20052;-70
2024/01/11 00:42:10;;;;;;;29.02;15.48;;;-4.60;99.90;;;;;;5070995;28;20072;-70
2024/01/11 00:44:39;;;;;;;27.35;14.82;;;-4.60;99.90;;;;;;5073063;28;20040;-70
2024/01/11 00:47:05;;;;;;;30.17;15.18;;;-4.60;99.90;;;;;;5071704;28;20044;-70
2024/01/11 00:49:30;;;;;;;26.55;14.93;;;-5.80;99.90;;;;;;5070837;28;20083;-70
2024/01/11 00:51:56;;;;;;;32.30;16.90;;;-4.60;99.90;;;;;;5072890;28;20058;-70
2024/01/11 00:54:23;;;;;;;32.85;15.98;;;-4.50;99.90;;;;;;5071825;28;20546;-70
2024/01/11 00:56:52;;;;;;;31.98;16.55;;;-4.50;99.90;;;;;;5072403;28;20032;-70
2024/01/11 00:59:18;;;;;;;28.67;15.13;;;-4.50;99.90;;;;;;5072278;28;20052;-70
2024/01/11 01:01:50;;;;;;;31.35;16.60;;;-4.40;99.90;;;;;;5072555;28;20048;-70
2024/01/11 01:04:15;;;;;;;30.80;15.40;;;-4.40;99.90;;;;;;5071878;28;20388;-69
2024/01/11 01:06:41;;;;;;;33.08;16.20;;;-4.40;99.90;;;;;;5072896;28;20048;-70
2024/01/11 01:09:10;;;;;;;33.03;17.25;;;-4.40;99.90;;;;;;5071631;28;20047;-70
2024/01/11 01:11:35;;;;;;;33.05;17.35;;;-3.20;99.90;;;;;;5072495;28;20479;-70
2024/01/11 01:14:01;;;;;;;33.58;17.25;;;-4.40;99.90;;;;;;5072149;28;20055;-70
2024/01/11 01:16:29;;;;;;;34.58;17.48;;;-4.40;99.90;;;;;;5071964;28;20154;-70
2024/01/11 01:18:54;;;;;;;29.52;15.43;;;-4.40;99.90;;;;;;5052404;28;20132;-70
2024/01/11 01:21:20;;;;;;;34.70;16.88;;;-4.30;99.90;;;;;;5050829;28;20127;-70
2024/01/11 01:23:46;;;;;;;34.55;17.60;;;-4.40;99.90;;;;;;5051976;28;20037;-70
2024/01/11 01:26:11;;;;;;;31.42;15.57;;;-4.40;99.90;;;;;;5051156;28;20492;-70
2024/01/11 01:28:37;;;;;;;34.30;17.20;;;-4.40;99.90;;;;;;5051613;28;20048;-70
2024/01/11 01:31:02;;;;;;;33.33;17.17;;;-4.40;99.90;;;;;;5058236;28;20499;-69
2024/01/11 01:33:31;;;;;;;33.72;16.42;;;-4.40;99.90;;;;;;5072745;28;20399;-69
2024/01/11 01:35:57;;;;;;;34.08;17.10;;;-4.50;99.90;;;;;;5072370;28;20510;-69
2024/01/11 01:38:23;;;;;;;35.38;17.35;;;-4.40;99.90;;;;;;5071339;28;20071;-69
2024/01/11 01:40:48;;;;;;;33.65;17.23;;;-4.40;99.90;;;;;;5071848;28;20052;-69
2024/01/11 01:43:14;;;;;;;34.75;17.75;;;-4.50;99.90;;;;;;5071993;28;20332;-69
2024/01/11 01:45:39;;;;;;;34.70;17.05;;;-4.40;99.90;;;;;;5070278;28;20060;-69
2024/01/11 01:48:06;;;;;;;36.95;17.77;;;-4.50;99.90;;;;;;5072046;28;20045;-69
2024/01/11 01:50:32;;;;;;;34.55;16.77;;;-4.50;99.90;;;;;;5070503;28;20052;-69
2024/01/11 01:53:03;;;;;;;34.50;16.92;;;-4.50;99.90;;;;;;5071325;28;20056;-69
2024/01/11 01:55:29;;;;;;;32.50;16.50;;;-4.50;99.90;;;;;;5072773;28;20095;-69
2024/01/11 01:57:57;;;;;;;30.40;15.95;;;-4.50;99.90;;;;;;5072188;28;20044;-69
2024/01/11 02:00:23;;;;;;;36.17;18.15;;;-4.50;99.90;;;;;;5069431;28;20399;-68
2024/01/11 02:02:52;;;;;;;34.03;16.42;;;-4.50;99.90;;;;;;5070858;28;20044;-69
2024/01/11 02:05:18;;;;;;;36.47;17.13;;;-4.40;99.90;;;;;;5071110;28;20045;-69
2024/01/11 02:07:44;;;;;;;35.58;18.20;;;-4.40;99.90;;;;;;5072116;28;20047;-69
2024/01/11 02:10:10;;;;;;;37.63;17.13;;;-4.40;99.90;;;;;;5069902;28;20044;-69
2024/01/11 02:12:37;;;;;;;37.28;18.00;;;-4.40;99.90;;;;;;5071182;28;20147;-69
2024/01/11 02:15:04;;;;;;;37.95;18.42;;;-4.40;99.90;;;;;;5071823;28;20064;-69
2024/01/11 02:17:30;;;;;;;32.65;17.73;;;-4.40;99.90;;;;;;5070682;28;20098;-69
2024/01/11 02:19:56;;;;;;;38.20;18.40;;;-4.40;99.90;;;;;;5070002;28;20052;-69
2024/01/11 02:22:28;;;;;;;38.42;18.75;;;-4.40;99.90;;;;;;5070263;28;20049;-69
2024/01/11 02:24:53;;;;;;;37.53;18.00;;;-4.40;99.90;;;;;;5072017;28;20411;-69
2024/01/11 02:27:19;;;;;;;36.83;18.50;;;-4.40;99.90;;;;;;5069785;28;20055;-69
2024/01/11 02:29:45;;;;;;;34.72;17.10;;;-4.50;99.90;;;;;;5072293;28;20032;-69
2024/01/11 02:32:11;;;;;;;34.45;17.38;;;-4.50;99.90;;;;;;5073789;28;20056;-69
2024/01/11 02:34:37;;;;;;;34.00;17.27;;;-4.50;99.90;;;;;;5075043;28;20133;-69
2024/01/11 02:37:04;;;;;;;35.60;17.05;;;-4.50;99.90;;;;;;5074914;28;20040;-70
2024/01/11 02:39:29;;;;;;;37.22;18.33;;;-4.50;99.90;;;;;;5075295;28;20172;-69
2024/01/11 02:41:57;;;;;;;35.63;18.30;;;-4.50;99.90;;;;;;5073766;28;20061;-69
2024/01/11 02:44:23;;;;;;;35.60;17.48;;;-4.50;99.90;;;;;;5074720;28;20049;-69
2024/01/11 02:46:49;;;;;;;38.63;18.25;;;-4.50;99.90;;;;;;5074476;28;20114;-69
2024/01/11 02:49:15;;;;;;;35.85;17.20;;;-4.50;99.90;;;;;;5074025;28;20501;-69
2024/01/11 02:51:40;;;;;;;40.33;18.05;;;-4.50;99.90;;;;;;5075342;28;20059;-69
2024/01/11 02:54:06;;;;;;;35.75;17.48;;;-4.50;99.90;;;;;;5074463;28;20386;-69
2024/01/11 02:56:34;;;;;;;35.20;17.42;;;-4.50;99.90;;;;;;5107255;28;20041;-69
2024/01/11 02:59:00;;;;;;;37.65;18.02;;;-4.40;99.90;;;;;;5073591;28;20053;-69
2024/01/11 03:01:25;;;;;;;33.88;17.50;;;-4.50;99.90;;;;;;5074906;28;20063;-69
2024/01/11 03:03:51;;;;;;;37.22;18.45;;;-4.50;99.90;;;;;;5074340;28;20402;-69
2024/01/11 03:06:21;;;;;;;34.78;17.90;;;-4.40;99.90;;;;;;5075043;28;20033;-69
2024/01/11 03:08:47;;;;;;;35.78;17.02;;;-4.40;99.90;;;;;;5073219;28;20496;-69
2024/01/11 03:11:13;;;;;;;33.10;16.92;;;-4.40;99.90;;;;;;5074579;28;20033;-69
2024/01/11 03:13:39;;;;;;;37.20;18.02;;;-4.40;99.90;;;;;;5074886;28;20043;-69
2024/01/11 03:16:05;;;;;;;36.00;18.02;;;-4.40;99.90;;;;;;5073741;28;20368;-69
2024/01/11 03:18:31;;;;;;;34.67;17.85;;;-4.40;99.90;;;;;;5074670;28;20044;-69
2024/01/11 03:20:57;;;;;;;37.50;17.95;;;-4.40;99.90;;;;;;5074717;28;20051;-69
2024/01/11 03:23:22;;;;;;;39.28;17.80;;;-4.40;99.90;;;;;;5073701;28;20430;-69
2024/01/11 03:25:48;;;;;;;34.22;18.00;;;-4.40;99.90;;;;;;5074905;28;20041;-69
2024/01/11 03:28:16;;;;;;;36.90;18.30;;;-4.40;99.90;;;;;;5074145;28;20041;-69
2024/01/11 03:30:42;;;;;;;34.88;16.70;;;-4.50;99.90;;;;;;5073847;28;20044;-69
2024/01/11 03:33:08;;;;;;;37.55;19.33;;;-4.40;99.90;;;;;;5072927;28;20127;-69
2024/01/11 03:35:34;;;;;;;35.28;17.77;;;-4.40;99.90;;;;;;5074534;28;20128;-69
2024/01/11 03:37:59;;;;;;;34.88;18.33;;;-4.50;99.90;;;;;;5072002;28;20048;-69
2024/01/11 03:40:26;;;;;;;37.15;17.77;;;-5.30;99.90;;;;;;5074075;28;20047;-69
2024/01/11 03:42:51;;;;;;;37.35;18.00;;;-4.50;99.90;;;;;;5074490;28;20118;-69
2024/01/11 03:45:20;;;;;;;36.50;17.55;;;-4.50;99.90;;;;;;5073148;28;20032;-69
2024/01/11 03:47:46;;;;;;;39.22;18.48;;;-4.50;99.90;;;;;;5074011;28;20127;-69
2024/01/11 03:50:11;;;;;;;35.92;17.85;;;-4.50;99.90;;;;;;5073392;28;20144;-69
2024/01/11 03:52:39;;;;;;;35.53;18.05;;;-4.60;99.90;;;;;;5073341;28;20079;-68
2024/01/11 03:55:05;;;;;;;35.22;17.25;;;-4.60;99.90;;;;;;5072144;28;20128;-69
2024/01/11 03:57:30;;;;;;;36.20;17.50;;;-4.60;99.90;;;;;;5074110;28;20051;-69
2024/01/11 03:59:56;;;;;;;33.10;17.20;;;-4.70;99.90;;;;;;5071650;28;20041;-69
2024/01/11 04:02:21;;;;;;;37.78;19.10;;;-4.60;99.90;;;;;;5073336;28;20052;-69
2024/01/11 04:04:47;;;;;;;32.85;17.48;;;-4.60;99.90;;;;;;5072018;28;20180;-69
2024/01/11 04:07:13;;;;;;;34.90;16.83;;;-5.40;99.90;;;;;;5072754;28;20032;-69
2024/01/11 04:09:39;;;;;;;33.88;17.63;;;-4.60;99.90;;;;;;5072666;28;20111;-69
2024/01/11 04:12:05;;;;;;;36.10;17.88;;;-4.60;99.90;;;;;;5072765;28;20047;-69
2024/01/11 04:14:31;;;;;;;37.20;17.95;;;-4.60;99.90;;;;;;5071390;28;20047;-69
2024/01/11 04:16:57;;;;;;;38.97;18.50;;;-4.60;99.90;;;;;;5072399;28;20391;-68
2024/01/11 04:19:23;;;;;;;36.33;17.85;;;-4.30;99.90;;;;;;5071429;28;20149;-69
2024/01/11 04:21:48;;;;;;;35.50;17.83;;;-4.70;99.90;;;;;;5073450;28;20049;-68
2024/01/11 04:24:14;;;;;;;34.75;17.85;;;-3.10;99.90;;;;;;5071947;28;20543;-69
2024/01/11 04:26:39;;;;;;;35.83;18.30;;;-4.60;99.90;;;;;;5073079;28;20036;-69
2024/01/11 04:29:08;;;;;;;35.28;17.33;;;-4.70;99.90;;;;;;5071794;28;20075;-69
2024/01/11 04:31:33;;;;;;;36.45;18.38;;;-4.60;99.90;;;;;;5073636;28;20498;-69
2024/01/11 04:33:59;;;;;;;35.42;17.92;;;-4.60;99.90;;;;;;5071295;28;20055;-69
2024/01/11 04:36:25;;;;;;;39.03;18.65;;;-4.60;99.90;;;;;;5073200;28;20472;-69
2024/01/11 04:38:50;;;;;;;40.40;18.90;;;-4.60;99.90;;;;;;5071862;28;20036;-68
2024/01/11 04:41:16;;;;;;;36.90;17.90;;;-4.60;99.90;;;;;;5072009;28;20399;-70
2024/01/11 04:43:45;;;;;;;39.80;18.38;;;-4.70;99.90;;;;;;5073395;28;20056;-69
2024/01/11 04:46:20;;;;;;;37.47;18.38;;;-4.70;99.90;;;;;;5072808;28;20503;-68
2024/01/11 04:48:47;;;;;;;38.83;18.13;;;-4.70;99.90;;;;;;5071113;28;20060;-69
2024/01/11 04:51:13;;;;;;;36.67;18.17;;;-4.70;99.90;;;;;;5072147;28;20063;-69
2024/01/11 04:53:40;;;;;;;39.63;19.33;;;-4.60;99.90;;;;;;5070965;28;20047;-69
2024/01/11 04:56:11;;;;;;;42.83;18.98;;;-4.60;99.90;;;;;;5070544;28;20041;-68
2024/01/11 04:58:39;;;;;;;38.42;18.55;;;-4.50;99.90;;;;;;5072998;28;20422;-69
2024/01/11 05:01:15;;;;;;;41.40;18.75;;;-4.40;99.90;;;;;;5071395;28;20514;-68
2024/01/11 05:03:41;;;;;;;38.30;18.88;;;-4.30;99.90;;;;;;5071846;28;20052;-68
2024/01/11 05:06:07;;;;;;;33.65;16.55;;;-4.20;99.90;;;;;;5070739;28;20496;-68
2024/01/11 05:08:33;;;;;;;36.20;17.20;;;-4.10;99.90;;;;;;5072094;28;20047;-68
2024/01/11 05:10:59;;;;;;;36.45;18.95;;;-4.00;99.90;;;;;;5071071;28;20041;-68
2024/01/11 05:13:24;;;;;;;42.63;19.45;;;-3.90;99.90;;;;;;5071860;28;20045;-69
2024/01/11 05:15:50;;;;;;;36.72;18.58;;;-3.80;99.90;;;;;;5071638;28;20044;-68
2024/01/11 05:18:15;;;;;;;37.88;19.17;;;-3.70;99.90;;;;;;5072239;28;20399;-68
2024/01/11 05:20:41;;;;;;;36.45;19.50;;;-3.60;99.90;;;;;;5071450;28;20052;-69
2024/01/11 05:23:07;;;;;;;37.08;18.52;;;-3.50;99.90;;;;;;5071605;28;20041;-69
2024/01/11 05:25:36;;;;;;;41.53;20.00;;;-3.50;99.90;;;;;;5072588;28;20029;-69
2024/01/11 05:28:03;;;;;;;43.80;20.08;;;-3.40;99.90;;;;;;5072083;28;20125;-69
2024/01/11 05:30:29;;;;;;;47.85;21.50;;;-3.30;99.90;;;;;;5071347;28;20479;-68
2024/01/11 05:32:54;;;;;;;41.20;21.05;;;-3.20;99.90;;;;;;5071111;28;20048;-69
2024/01/11 05:35:21;;;;;;;53.25;29.20;;;-3.20;99.90;;;;;;5071839;28;20041;-68
2024/01/11 05:37:47;;;;;;;43.30;22.80;;;-3.10;99.90;;;;;;5071721;28;20055;-69
2024/01/11 05:40:13;;;;;;;43.35;21.60;;;-3.00;99.90;;;;;;5070674;28;20422;-69
2024/01/11 05:42:39;;;;;;;39.88;19.75;;;-2.90;99.90;;;;;;5072086;28;20045;-69
2024/01/11 05:45:05;;;;;;;40.78;19.83;;;-2.90;99.90;;;;;;5071433;28;20036;-70
2024/01/11 05:47:31;;;;;;;45.20;21.67;;;-2.90;99.90;;;;;;5071502;28;20040;-69
2024/01/11 05:49:56;;;;;;;39.83;20.20;;;-2.80;99.90;;;;;;5070821;28;20557;-69
2024/01/11 05:52:25;;;;;;;43.05;20.10;;;-2.80;99.90;;;;;;5070234;28;20415;-70
2024/01/11 05:54:50;;;;;;;39.40;20.67;;;-2.70;99.90;;;;;;5071648;28;20036;-73
2024/01/11 05:57:16;;;;;;;38.00;18.63;;;-2.60;99.90;;;;;;5071218;28;20044;-72
2024/01/11 05:59:45;;;;;;;44.13;21.42;;;-2.60;99.90;;;;;;5069973;28;20048;-71
2024/01/11 06:02:12;;;;;;;40.78;20.75;;;-2.60;99.90;;;;;;5071593;28;20426;-72
2024/01/11 06:04:37;;;;;;;41.17;21.13;;;-2.50;99.90;;;;;;5073604;28;20135;-75
2024/01/11 06:07:03;;;;;;;41.10;20.90;;;-2.50;99.90;;;;;;5075346;28;20119;-77
2024/01/11 06:09:29;;;;;;;39.55;20.20;;;-2.40;99.90;;;;;;5075987;28;20044;-75
2024/01/11 06:11:54;;;;;;;42.03;20.90;;;-2.40;99.90;;;;;;5074989;28;20047;-75
2024/01/11 06:14:23;;;;;;;38.15;19.67;;;-2.40;99.90;;;;;;5074532;28;20048;-78
2024/01/11 06:16:49;;;;;;;42.53;20.38;;;-2.30;99.90;;;;;;5074415;28;20044;-76
2024/01/11 06:19:14;;;;;;;48.58;22.50;;;-2.20;99.90;;;;;;5074432;28;20052;-73
2024/01/11 06:21:40;;;;;;;46.92;22.23;;;-2.20;99.90;;;;;;5073879;28;20063;-75
2024/01/11 06:24:06;;;;;;;43.40;21.60;;;-2.20;99.90;;;;;;5075474;28;20116;-80
2024/01/11 06:26:32;;;;;;;43.20;20.27;;;-2.10;99.90;;;;;;5075054;28;20135;-75
2024/01/11 06:28:58;;;;;;;42.25;20.55;;;-1.60;99.90;;;;;;5075730;28;20122;-71
2024/01/11 06:31:24;;;;;;;37.67;19.70;;;-2.10;99.90;;;;;;5075755;28;20513;-71
2024/01/11 06:33:49;;;;;;;37.33;19.27;;;-2.00;99.90;;;;;;5073837;28;20069;-70
2024/01/11 06:36:15;;;;;;;42.03;20.65;;;-2.00;99.90;;;;;;5075100;28;20399;-69
2024/01/11 06:38:41;;;;;;;;;;;-2.00;99.90;;;;;;5076309;28;20123;-74
2024/01/11 06:41:06;;;;;;;44.47;22.10;;;-1.90;99.90;;;;;;5073964;28;19924;-71
2024/01/11 06:43:38;;;;;;;41.42;20.90;;;-1.90;99.90;;;;;;5073413;28;20052;-70
2024/01/11 06:46:05;;;;;;;41.90;21.13;;;-1.80;99.90;;;;;;5069137;28;20033;-70
2024/01/11 06:48:31;;;;;;;45.95;22.23;;;-1.80;99.90;;;;;;5073047;28;20398;-70
2024/01/11 06:50:57;;;;;;;42.13;21.75;;;-1.80;99.90;;;;;;5074399;28;20052;-72
2024/01/11 06:53:23;;;;;;;47.72;23.30;;;-1.70;99.90;;;;;;5074275;28;20453;-73
2024/01/11 06:55:52;;;;;;;47.40;25.77;;;-1.70;99.90;;;;;;5071953;28;20395;-72
2024/01/11 06:58:17;;;;;;;43.58;23.02;;;-1.70;99.90;;;;;;5073112;28;20049;-71
2024/01/11 07:00:43;;;;;;;46.92;21.73;;;-1.60;99.90;;;;;;5070813;28;20398;-73
2024/01/11 07:03:10;;;;;;;46.40;24.60;;;-1.60;99.90;;;;;;5073173;28;20528;-73
2024/01/11 07:05:38;;;;;;;42.55;21.52;;;-1.60;99.90;;;;;;5072414;28;20543;-75
2024/01/11 07:08:04;;;;;;;40.20;20.95;;;-1.60;99.90;;;;;;5069884;28;20111;-77
2024/01/11 07:10:30;;;;;;;53.28;24.83;;;-1.60;99.90;;;;;;5071486;28;20036;-74
2024/01/11 07:12:58;;;;;;;45.03;23.48;;;-1.60;99.90;;;;;;5074477;28;20041;-72
2024/01/11 07:15:24;;;;;;;43.55;22.77;;;-1.60;99.90;;;;;;5072792;28;20037;-71
2024/01/11 07:17:50;;;;;;;48.70;23.98;;;-1.50;99.90;;;;;;5072831;28;20049;-71
2024/01/11 07:20:17;;;;;;;44.55;23.23;;;-1.50;99.90;;;;;;5073652;28;20116;-71
2024/01/11 07:22:43;;;;;;;40.65;21.40;;;-1.50;99.90;;;;;;5073129;28;20407;-71
2024/01/11 07:25:08;;;;;;;41.45;20.85;;;-1.50;99.90;;;;;;5072653;28;20044;-71
2024/01/11 07:27:35;;;;;;;42.10;21.95;;;-1.50;99.90;;;;;;5074108;28;20075;-71
2024/01/11 07:30:02;;;;;;;39.38;20.85;;;-1.40;99.90;;;;;;5073142;28;20068;-71
2024/01/11 07:32:28;;;;;;;40.30;21.27;;;-1.40;99.90;;;;;;5074271;28;20605;-70
2024/01/11 07:34:53;;;;;;;42.53;21.02;;;-1.40;99.90;;;;;;5074251;28;20064;-75
2024/01/11 07:37:20;;;;;;;45.90;24.00;;;-1.40;99.90;;;;;;5072605;28;20045;-71
2024/01/11 07:39:45;;;;;;;46.10;23.80;;;-1.30;99.90;;;;;;5074037;28;20052;-71
2024/01/11 07:42:11;;;;;;;42.00;22.33;;;-1.30;99.90;;;;;;5073782;28;20040;-70
2024/01/11 07:44:36;;;;;;;;;;;-1.30;99.90;;;;;;5072517;28;20044;-71
2024/01/11 07:47:02;;;;;;;37.22;20.25;;;-1.20;99.90;;;;;;5072867;28;19974;-72
2024/01/11 07:49:28;;;;;;;37.50;18.98;;;-1.20;99.90;;;;;;5071657;28;20044;-71
2024/01/11 07:51:53;;;;;;;36.10;20.35;;;-1.20;99.90;;;;;;5084382;28;20044;-73
2024/01/11 07:54:19;;;;;;;35.88;20.38;;;-1.20;99.90;;;;;;5093861;28;20055;-73
2024/01/11 07:56:45;;;;;;;37.05;19.75;;;-1.20;99.90;;;;;;5081367;28;20041;-73
2024/01/11 07:59:14;;;;;;;40.67;20.60;;;-1.20;99.90;;;;;;5072802;28;20047;-73
2024/01/11 08:01:48;;;;;;;36.75;19.75;;;-1.10;99.90;;;;;;5072521;28;20044;-75
2024/01/11 08:04:14;;;;;;;33.40;19.25;;;-1.10;99.90;;;;;;5072354;28;20052;-73
2024/01/11 08:06:49;;;;;;;35.50;19.05;;;-1.10;99.90;;;;;;5078125;28;20078;-75
2024/01/11 08:09:15;;;;;;;39.00;20.50;;;-1.10;99.90;;;;;;5072614;28;20119;-77
2024/01/11 08:11:43;;;;;;;40.08;20.77;;;-1.10;99.90;;;;;;5069615;28;20127;-74
2024/01/11 08:14:09;;;;;;;35.53;19.50;;;-1.10;99.90;;;;;;5071447;28;20037;-75
2024/01/11 08:16:34;;;;;;;35.70;19.20;;;-1.10;99.90;;;;;;5070282;28;20048;-75
2024/01/11 08:19:03;;;;;;;34.70;19.38;;;-1.10;99.90;;;;;;5069490;28;20060;-75
2024/01/11 08:21:29;;;;;;;35.88;18.73;;;-1.10;99.90;;;;;;5072258;28;20040;-76
2024/01/11 08:23:57;;;;;;;35.28;17.75;;;-1.00;99.90;;;;;;5073517;28;20040;-76
2024/01/11 08:26:23;;;;;;;35.13;18.85;;;-1.00;99.90;;;;;;5071167;28;20055;-76
2024/01/11 08:28:49;;;;;;;;;;;-1.00;99.90;;;;;;5074100;28;20040;-74
2024/01/11 08:31:14;;;;;;;30.52;17.55;;;-1.80;99.90;;;;;;5071981;28;19964;-75
2024/01/11 08:33:40;;;;;;;32.63;18.65;;;-0.50;99.90;;;;;;5071164;28;20072;-75
2024/01/11 08:36:06;;;;;;;32.08;18.00;;;-0.90;99.90;;;;;;5072051;28;20071;-76
2024/01/11 08:38:32;;;;;;;31.55;18.00;;;-0.80;99.90;;;;;;5073394;28;20036;-76
2024/01/11 08:41:01;;;;;;;34.13;19.75;;;-0.80;99.90;;;;;;5072373;28;20495;-76
2024/01/11 08:43:27;;;;;;;35.25;17.85;;;-0.10;99.90;;;;;;5071740;28;20095;-77
2024/01/11 08:45:53;;;;;;;35.35;20.35;;;-0.70;99.90;;;;;;5073336;28;20036;-77
2024/01/11 08:48:18;;;;;;;31.88;18.73;;;-0.60;99.90;;;;;;5071915;28;20136;-76
2024/01/11 08:50:44;;;;;;;34.28;20.08;;;-0.60;99.90;;;;;;5071560;28;20486;-76
2024/01/11 08:53:09;;;;;;;;;;;-0.50;99.90;;;;;;5071785;28;20053;-76
2024/01/11 08:55:35;;;;;;;31.23;16.48;;;-0.40;99.90;;;;;;5072754;28;19968;-76
2024/01/11 08:58:00;;;;;;;31.88;18.23;;;-0.40;99.90;;;;;;5070989;28;20044;-74
2024/01/11 09:00:27;;;;;;;35.13;18.95;;;-0.30;99.90;;;;;;5070635;28;20109;-74
2024/01/11 09:02:52;;;;;;;33.13;18.33;;;-0.30;99.90;;;;;;5072584;28;20044;-74
2024/01/11 09:05:18;;;;;;;33.47;18.38;;;-0.20;99.90;;;;;;5072635;28;20550;-74
2024/01/11 09:07:43;;;;;;;33.95;19.33;;;-0.10;99.90;;;;;;5072367;28;20064;-72
2024/01/11 09:10:10;;;;;;;34.05;18.83;;;-0.10;99.90;;;;;;5070777;28;20395;-72
2024/01/11 09:12:36;;;;;;;34.42;19.08;;;0.00;99.90;;;;;;5072466;28;20186;-72
2024/01/11 09:15:03;;;;;;;32.55;18.80;;;0.00;99.90;;;;;;5071576;28;20546;-72
2024/01/11 09:17:28;;;;;;;32.28;19.15;;;0.10;99.90;;;;;;5072552;28;20055;-72
2024/01/11 09:19:54;;;;;;;30.48;17.55;;;0.10;99.90;;;;;;5071961;28;20029;-72
2024/01/11 09:22:20;;;;;;;32.67;18.63;;;0.20;99.90;;;;;;5071022;28;20098;-73
2024/01/11 09:24:45;;;;;;;33.13;17.67;;;0.20;99.90;;;;;;5070694;28;20055;-72
2024/01/11 09:27:11;;;;;;;30.10;17.95;;;0.30;99.90;;;;;;5070383;28;20056;-72
2024/01/11 09:29:41;;;;;;;31.85;17.83;;;0.40;99.90;;;;;;5071496;28;20041;-72
2024/01/11 09:32:07;;;;;;;30.20;17.85;;;0.40;99.90;;;;;;5070878;28;20111;-72
2024/01/11 09:34:32;;;;;;;31.20;17.83;;;0.50;99.90;;;;;;5072597;28;20037;-72
2024/01/11 09:36:58;;;;;;;;;;;0.50;99.90;;;;;;5071158;28;20090;-72
2024/01/11 09:39:25;;;;;;;33.08;18.02;;;0.60;99.90;;;;;;5070647;28;20462;-72
2024/01/11 09:42:09;;;;;;;30.52;18.02;;;0.70;99.90;;;;;;5072431;28;20046;-72
2024/01/11 09:44:37;;;;;;;33.72;17.65;;;0.70;99.90;;;;;;5069837;28;20131;-73
2024/01/11 09:47:05;;;;;;;28.73;16.58;;;0.70;99.90;;;;;;5070975;28;20040;-73
2024/01/11 09:49:32;;;;;;;30.52;17.13;;;0.80;99.90;;;;;;5070382;28;20458;-72
2024/01/11 09:52:01;;;;;;;29.65;15.95;;;0.80;99.90;;;;;;5072438;28;20049;-73
2024/01/11 09:54:27;;;;;;;31.60;16.63;;;0.90;99.90;;;;;;5070746;28;20737;-75
2024/01/11 09:56:57;;;;;;;32.33;17.85;;;0.90;99.90;;;;;;5071075;28;20036;-74
2024/01/11 09:59:25;;;;;;;32.53;18.00;;;1.20;99.90;;;;;;5070155;28;20403;-76
2024/01/11 10:01:51;;;;;;;28.95;15.40;;;1.00;99.90;;;;;;5072065;28;20430;-75
2024/01/11 10:04:17;;;;;;;30.27;17.00;;;1.10;99.90;;;;;;5069755;28;20402;-75
2024/01/11 10:06:43;;;;;;;26.98;15.40;;;1.10;99.90;;;;;;5071143;28;20041;-75
2024/01/11 10:09:09;;;;;;;31.23;18.05;;;1.20;99.90;;;;;;5071661;28;20043;-76
2024/01/11 10:11:35;;;;;;;29.83;16.77;;;1.30;99.90;;;;;;5070199;28;20119;-75
2024/01/11 10:14:05;;;;;;;31.05;18.35;;;1.30;99.90;;;;;;5070474;28;20045;-75
2024/01/11 10:16:31;;;;;;;28.98;16.52;;;1.30;99.90;;;;;;5070268;28;20045;-75
2024/01/11 10:18:59;;;;;;;23.58;13.55;;;1.40;99.90;;;;;;5071143;28;20049;-75
2024/01/11 10:21:27;;;;;;;23.45;13.10;;;1.40;99.90;;;;;;5071881;28;20040;-76
2024/01/11 10:23:58;;;;;;;22.95;12.90;;;1.50;99.90;;;;;;5070691;28;20524;-76
2024/01/11 10:26:28;;;;;;;22.75;11.88;;;1.60;99.90;;;;;;5070506;28;20048;-76
2024/01/11 10:28:59;;;;;;;23.73;12.45;;;1.70;99.90;;;;;;5070552;28;20053;-75
2024/01/11 10:31:27;;;;;;;23.05;13.98;;;1.70;99.90;;;;;;5070849;28;20063;-75
2024/01/11 10:33:53;;;;;;;29.70;16.52;;;1.80;99.90;;;;;;5071243;28;20040;-78
2024/01/11 10:36:18;;;;;;;26.77;15.10;;;1.80;99.90;;;;;;5071239;28;20056;-76
2024/01/11 10:38:47;;;;;;;26.38;14.45;;;1.90;99.90;;;;;;5069666;28;20071;-75
2024/01/11 10:41:17;;;;;;;30.15;15.85;;;1.90;99.90;;;;;;5069951;28;20060;-74
2024/01/11 10:43:43;;;;;;;19.70;10.73;;;2.00;99.90;;;;;;5070660;28;20495;-76
2024/01/11 10:46:12;;;;;;;21.10;12.00;;;2.00;99.90;;;;;;5070720;28;20055;-77
2024/01/11 10:48:39;;;;;;;20.67;11.40;;;2.10;99.90;;;;;;5070812;28;20438;-75
2024/01/11 10:51:09;;;;;;;15.70;8.45;;;2.10;99.90;;;;;;5071497;28;20064;-75
2024/01/11 10:53:40;;;;;;;13.98;7.05;;;2.20;99.90;;;;;;5073022;28;20048;-77
2024/01/11 10:56:09;;;;;;;13.63;7.57;;;2.20;99.90;;;;;;5073228;28;20052;-78
2024/01/11 10:58:35;;;;;;;12.27;6.80;;;2.30;99.90;;;;;;5074087;28;20037;-78
2024/01/11 11:01:02;;;;;;;12.20;6.57;;;2.40;99.90;;;;;;5073047;28;20066;-75
2024/01/11 11:03:31;;;;;;;15.25;6.70;;;2.50;99.90;;;;;;5073767;28;20044;-76
2024/01/11 11:06:04;;;;;;;13.68;6.38;;;2.50;99.90;;;;;;5074046;28;20468;-75
2024/01/11 11:08:31;;;;;;;12.85;6.70;;;2.70;99.90;;;;;;5074412;28;20048;-75
2024/01/11 11:11:00;;;;;;;15.60;9.52;;;2.90;99.90;;;;;;5074300;28;20051;-76
2024/01/11 11:13:27;;;;;;;12.18;6.90;;;2.70;99.90;;;;;;5074069;28;20060;-76
2024/01/11 11:15:53;;;;;;;11.55;5.57;;;2.80;99.90;;;;;;5072767;28;20460;-76
2024/01/11 11:18:20;;;;;;;12.07;5.25;;;2.90;99.90;;;;;;5073061;28;20048;-77
2024/01/11 11:20:47;;;;;;;10.80;5.32;;;2.90;99.90;;;;;;5073441;28;20105;-75
2024/01/11 11:23:17;;;;;;;12.00;4.45;;;3.00;99.90;;;;;;5071699;28;20041;-75
2024/01/11 11:25:45;;;;;;;8.27;4.85;;;3.00;99.90;;;;;;5072866;28;20048;-76
2024/01/11 11:28:16;;;;;;;16.20;7.07;;;3.00;99.90;;;;;;5105001;28;20067;-77
2024/01/11 11:30:51;;;;;;;12.80;8.73;;;3.10;99.90;;;;;;5073973;28;20499;-79
2024/01/11 11:33:17;;;;;;;14.90;9.35;;;3.10;99.90;;;;;;5072543;28;20048;-75
2024/01/11 11:35:43;;;;;;;15.10;6.35;;;3.10;99.90;;;;;;5071892;28;20051;-76
2024/01/11 11:38:16;;;;;;;;;;;3.20;99.90;;;;;;5073007;28;20113;-74
2024/01/11 11:40:45;;;;;;;13.60;5.50;;;3.20;99.90;;;;;;5074550;28;20005;-74
2024/01/11 11:43:10;;;;;;;12.63;5.45;;;3.50;99.90;;;;;;5073103;28;20614;-75
2024/01/11 11:45:37;;;;;;;13.57;5.47;;;3.20;99.90;;;;;;5073036;28;20131;-75
2024/01/11 11:48:29;;;;;;;10.15;5.00;;;3.20;99.90;;;;;;5073945;28;20133;-73
2024/01/11 11:51:17;;;;;;;13.82;3.67;;;3.30;99.90;;;;;;5072314;28;20061;-76
2024/01/11 11:53:47;;;;;;;14.50;4.63;;;3.30;99.90;;;;;;5073294;28;20048;-77
2024/01/11 11:56:16;;;;;;;16.08;4.63;;;3.40;99.90;;;;;;5073136;28;20123;-75
2024/01/11 11:58:45;;;;;;;20.98;5.80;;;3.40;99.90;;;;;;5071495;28;20057;-77
2024/01/11 12:01:13;;;;;;;15.98;5.55;;;3.50;99.90;;;;;;5072005;28;20044;-77
2024/01/11 12:03:41;;;;;;;13.38;4.57;;;3.50;99.90;;;;;;5071963;28;20098;-78
2024/01/11 12:06:08;;;;;;;14.25;3.00;;;4.30;99.90;;;;;;5070539;28;20044;-78
2024/01/11 12:08:37;;;;;;;16.90;2.70;;;3.50;99.90;;;;;;5071798;28;20041;-77
2024/01/11 12:11:04;;;;;;;18.00;3.03;;;3.60;99.90;;;;;;5069258;28;20526;-78
2024/01/11 12:13:30;;;;;;;13.55;2.85;;;3.70;99.90;;;;;;5070416;28;20053;-78
2024/01/11 12:15:56;;;;;;;15.63;3.22;;;3.70;99.90;;;;;;5070769;28;20056;-78
2024/01/11 12:18:22;;;;;;;20.40;3.22;;;3.70;99.90;;;;;;5069358;28;20043;-78
2024/01/11 12:20:48;;;;;;;;;;;3.70;99.90;;;;;;5070211;28;20392;-78
2024/01/11 12:23:14;;;;;;;16.30;4.45;;;3.70;99.90;;;;;;5071866;28;19987;-78
2024/01/11 12:25:41;;;;;;;15.43;3.35;;;3.70;99.90;;;;;;5071366;28;20480;-77
2024/01/11 12:28:06;;;;;;;16.20;2.78;;;3.70;99.90;;;;;;5072116;28;20088;-78
2024/01/11 12:30:32;;;;;;;17.25;3.00;;;3.70;99.90;;;;;;5073551;28;20075;-77